Terminal Aerodrome Forecast
Issued by NWS

Home | Current Version | Previous Version | Text Only | Print | Product List | Glossary On
Versions: 1 2 3 4 5 6 7 8 9 10 11 12 13 14 15 16 17 18 19 20 21 22 23 24 25 26 27 28 29 30
000
FTUS41 KGYX 300520
TAFLEB
TAF
KLEB 300520Z 3006/3106 00000KT P6SM SKC
     FM301100 18004KT P6SM SCT250
     FM301300 20010G18KT P6SM SCT050
     FM301700 20014G21KT P6SM BKN120 BKN250
     FM310000 20013KT P6SM OVC100 PROB30 3100/3101 P6SM -TSRA
      BKN050CB
     FM310300 20013KT P6SM -SHRA OVC035=

USA.gov is the U.S. government's official web portal to all federal, state and local government web resources and services.